sensor_id;sensor_type;location;lat;lon;timestamp;temperature;humidity
53314;DHT22;39202;51.468;7.146;2022-12-20T00:02:03;21.90;37.60
53314;DHT22;39202;51.468;7.146;2022-12-20T00:07:05;21.90;37.70
53314;DHT22;39202;51.468;7.146;2022-12-20T00:12:08;21.90;37.70
53314;DHT22;39202;51.468;7.146;2022-12-20T00:17:10;21.90;37.70
53314;DHT22;39202;51.468;7.146;2022-12-20T00:22:11;21.90;37.70
53314;DHT22;39202;51.468;7.146;2022-12-20T00:27:14;21.90;37.70
53314;DHT22;39202;51.468;7.146;2022-12-20T00:32:16;21.80;37.70
53314;DHT22;39202;51.468;7.146;2022-12-20T00:37:18;21.80;37.70
53314;DHT22;39202;51.468;7.146;2022-12-20T00:42:21;21.80;37.70
53314;DHT22;39202;51.468;7.146;2022-12-20T00:47:22;21.80;37.80
53314;DHT22;39202;51.468;7.146;2022-12-20T00:52:24;21.80;38.40
53314;DHT22;39202;51.468;7.146;2022-12-20T00:57:27;21.80;37.70
53314;DHT22;39202;51.468;7.146;2022-12-20T01:02:29;21.80;37.80
53314;DHT22;39202;51.468;7.146;2022-12-20T01:07:32;21.80;37.80
53314;DHT22;39202;51.468;7.146;2022-12-20T01:12:35;21.80;37.70
53314;DHT22;39202;51.468;7.146;2022-12-20T01:17:36;21.80;37.80
53314;DHT22;39202;51.468;7.146;2022-12-20T01:22:38;21.80;37.80
53314;DHT22;39202;51.468;7.146;2022-12-20T01:27:41;21.80;37.80
53314;DHT22;39202;51.468;7.146;2022-12-20T01:32:43;21.80;37.80
53314;DHT22;39202;51.468;7.146;2022-12-20T01:37:44;21.80;37.80
53314;DHT22;39202;51.468;7.146;2022-12-20T01:42:47;21.80;37.80
53314;DHT22;39202;51.468;7.146;2022-12-20T01:47:49;21.80;37.80
53314;DHT22;39202;51.468;7.146;2022-12-20T01:52:51;21.80;37.80
53314;DHT22;39202;51.468;7.146;2022-12-20T01:57:56;21.80;38.50
53314;DHT22;39202;51.468;7.146;2022-12-20T02:03:02;21.70;37.80
53314;DHT22;39202;51.468;7.146;2022-12-20T02:08:05;21.70;37.80
53314;DHT22;39202;51.468;7.146;2022-12-20T02:13:15;21.70;37.80
53314;DHT22;39202;51.468;7.146;2022-12-20T02:18:21;21.70;37.80
53314;DHT22;39202;51.468;7.146;2022-12-20T02:23:38;21.70;37.80
53314;DHT22;39202;51.468;7.146;2022-12-20T02:28:59;21.70;37.80
53314;DHT22;39202;51.468;7.146;2022-12-20T02:34:08;21.70;37.90
53314;DHT22;39202;51.468;7.146;2022-12-20T02:39:11;21.70;37.90
53314;DHT22;39202;51.468;7.146;2022-12-20T02:44:16;21.70;37.90
53314;DHT22;39202;51.468;7.146;2022-12-20T02:49:39;21.70;38.30
53314;DHT22;39202;51.468;7.146;2022-12-20T02:54:43;21.70;37.90
53314;DHT22;39202;51.468;7.146;2022-12-20T02:59:51;21.70;37.90
53314;DHT22;39202;51.468;7.146;2022-12-20T03:04:57;21.70;37.90
53314;DHT22;39202;51.468;7.146;2022-12-20T03:09:59;21.70;37.90
53314;DHT22;39202;51.468;7.146;2022-12-20T03:15:01;21.70;37.90
53314;DHT22;39202;51.468;7.146;2022-12-20T03:20:05;21.70;37.90
53314;DHT22;39202;51.468;7.146;2022-12-20T03:25:08;21.60;37.90
53314;DHT22;39202;51.468;7.146;2022-12-20T03:30:11;21.60;37.90
53314;DHT22;39202;51.468;7.146;2022-12-20T03:35:14;21.60;37.90
53314;DHT22;39202;51.468;7.146;2022-12-20T03:40:16;21.60;37.90
53314;DHT22;39202;51.468;7.146;2022-12-20T03:45:18;21.60;38.00
53314;DHT22;39202;51.468;7.146;2022-12-20T03:50:21;21.60;38.00
53314;DHT22;39202;51.468;7.146;2022-12-20T03:55:23;21.50;38.00
53314;DHT22;39202;51.468;7.146;2022-12-20T04:00:25;21.60;38.00
53314;DHT22;39202;51.468;7.146;2022-12-20T04:05:28;21.60;38.00
53314;DHT22;39202;51.468;7.146;2022-12-20T04:10:29;21.50;38.00
53314;DHT22;39202;51.468;7.146;2022-12-20T04:15:31;21.50;38.00
53314;DHT22;39202;51.468;7.146;2022-12-20T04:20:34;21.50;38.00
53314;DHT22;39202;51.468;7.146;2022-12-20T04:25:36;21.60;38.00
53314;DHT22;39202;51.468;7.146;2022-12-20T04:30:37;21.50;38.00
53314;DHT22;39202;51.468;7.146;2022-12-20T04:35:40;21.50;38.00
53314;DHT22;39202;51.468;7.146;2022-12-20T04:40:42;21.50;38.00
53314;DHT22;39202;51.468;7.146;2022-12-20T04:45:46;21.50;38.00
53314;DHT22;39202;51.468;7.146;2022-12-20T04:50:49;21.50;38.10
53314;DHT22;39202;51.468;7.146;2022-12-20T04:55:52;21.50;38.00
53314;DHT22;39202;51.468;7.146;2022-12-20T05:00:53;21.50;38.00
53314;DHT22;39202;51.468;7.146;2022-12-20T05:05:57;21.50;38.00
53314;DHT22;39202;51.468;7.146;2022-12-20T05:10:58;21.50;38.00
53314;DHT22;39202;51.468;7.146;2022-12-20T05:16:00;21.50;38.00
53314;DHT22;39202;51.468;7.146;2022-12-20T05:21:04;21.50;38.10
53314;DHT22;39202;51.468;7.146;2022-12-20T05:26:25;21.50;38.10
53314;DHT22;39202;51.468;7.146;2022-12-20T05:31:27;21.50;38.10
53314;DHT22;39202;51.468;7.146;2022-12-20T05:36:30;21.50;38.10
53314;DHT22;39202;51.468;7.146;2022-12-20T05:41:32;21.40;38.00
53314;DHT22;39202;51.468;7.146;2022-12-20T05:46:33;21.40;38.10
53314;DHT22;39202;51.468;7.146;2022-12-20T05:51:36;21.40;38.10
53314;DHT22;39202;51.468;7.146;2022-12-20T05:56:38;21.40;38.10
53314;DHT22;39202;51.468;7.146;2022-12-20T06:01:40;21.50;38.30
53314;DHT22;39202;51.468;7.146;2022-12-20T06:06:43;21.50;38.30
53314;DHT22;39202;51.468;7.146;2022-12-20T06:11:44;21.50;38.30
53314;DHT22;39202;51.468;7.146;2022-12-20T06:16:47;21.50;38.30
53314;DHT22;39202;51.468;7.146;2022-12-20T06:21:50;21.60;38.40
53314;DHT22;39202;51.468;7.146;2022-12-20T06:26:52;21.60;38.40
53314;DHT22;39202;51.468;7.146;2022-12-20T06:31:53;21.70;38.40
53314;DHT22;39202;51.468;7.146;2022-12-20T06:36:56;21.70;38.40
53314;DHT22;39202;51.468;7.146;2022-12-20T06:41:58;21.80;38.40
53314;DHT22;39202;51.468;7.146;2022-12-20T06:47:00;21.80;38.30
53314;DHT22;39202;51.468;7.146;2022-12-20T06:52:04;21.90;38.30
53314;DHT22;39202;51.468;7.146;2022-12-20T06:57:05;21.90;38.20
53314;DHT22;39202;51.468;7.146;2022-12-20T07:02:08;21.90;38.20
53314;DHT22;39202;51.468;7.146;2022-12-20T07:07:12;21.90;38.20
53314;DHT22;39202;51.468;7.146;2022-12-20T07:12:14;21.90;38.20
53314;DHT22;39202;51.468;7.146;2022-12-20T07:17:16;22.10;38.30
53314;DHT22;39202;51.468;7.146;2022-12-20T07:22:19;22.00;38.30
53314;DHT22;39202;51.468;7.146;2022-12-20T07:27:21;22.10;38.20
53314;DHT22;39202;51.468;7.146;2022-12-20T07:32:23;22.10;38.20
53314;DHT22;39202;51.468;7.146;2022-12-20T07:37:27;22.20;38.20
53314;DHT22;39202;51.468;7.146;2022-12-20T07:42:29;22.20;38.20
53314;DHT22;39202;51.468;7.146;2022-12-20T07:47:31;22.20;38.20
53314;DHT22;39202;51.468;7.146;2022-12-20T07:52:36;22.20;38.10
53314;DHT22;39202;51.468;7.146;2022-12-20T07:57:41;22.20;38.10
53314;DHT22;39202;51.468;7.146;2022-12-20T08:02:47;22.20;38.00
53314;DHT22;39202;51.468;7.146;2022-12-20T08:07:52;22.30;38.10
53314;DHT22;39202;51.468;7.146;2022-12-20T08:12:57;22.20;38.00
53314;DHT22;39202;51.468;7.146;2022-12-20T08:17:59;22.20;38.00
53314;DHT22;39202;51.468;7.146;2022-12-20T08:23:03;22.20;38.00
53314;DHT22;39202;51.468;7.146;2022-12-20T08:28:05;22.20;37.90
53314;DHT22;39202;51.468;7.146;2022-12-20T08:33:06;22.20;38.00
53314;DHT22;39202;51.468;7.146;2022-12-20T08:38:09;22.20;38.00
53314;DHT22;39202;51.468;7.146;2022-12-20T08:43:11;22.20;38.00
53314;DHT22;39202;51.468;7.146;2022-12-20T08:48:13;22.10;37.90
53314;DHT22;39202;51.468;7.146;2022-12-20T08:53:16;22.20;38.00
53314;DHT22;39202;51.468;7.146;2022-12-20T08:58:17;22.10;37.90
53314;DHT22;39202;51.468;7.146;2022-12-20T09:03:19;22.10;38.00
53314;DHT22;39202;51.468;7.146;2022-12-20T09:08:22;22.10;38.00
53314;DHT22;39202;51.468;7.146;2022-12-20T09:13:24;22.10;38.00
53314;DHT22;39202;51.468;7.146;2022-12-20T09:18:26;22.10;38.00
53314;DHT22;39202;51.468;7.146;2022-12-20T09:23:30;22.10;38.00
53314;DHT22;39202;51.468;7.146;2022-12-20T09:28:32;22.10;38.70
53314;DHT22;39202;51.468;7.146;2022-12-20T09:33:34;22.10;38.10
53314;DHT22;39202;51.468;7.146;2022-12-20T09:38:37;22.10;38.10
53314;DHT22;39202;51.468;7.146;2022-12-20T09:43:39;22.10;38.10
53314;DHT22;39202;51.468;7.146;2022-12-20T09:48:42;22.10;38.20
53314;DHT22;39202;51.468;7.146;2022-12-20T09:53:53;22.10;38.10
53314;DHT22;39202;51.468;7.146;2022-12-20T09:59:03;22.10;38.20
53314;DHT22;39202;51.468;7.146;2022-12-20T10:04:14;22.10;38.20
53314;DHT22;39202;51.468;7.146;2022-12-20T10:09:34;22.10;38.10
53314;DHT22;39202;51.468;7.146;2022-12-20T10:14:52;22.20;38.20
53314;DHT22;39202;51.468;7.146;2022-12-20T10:20:16;22.10;38.10
53314;DHT22;39202;51.468;7.146;2022-12-20T10:25:22;22.20;38.20
53314;DHT22;39202;51.468;7.146;2022-12-20T10:30:26;22.10;38.30
53314;DHT22;39202;51.468;7.146;2022-12-20T10:35:30;22.20;38.60
53314;DHT22;39202;51.468;7.146;2022-12-20T10:40:37;22.20;38.60
53314;DHT22;39202;51.468;7.146;2022-12-20T10:45:41;22.30;38.90
53314;DHT22;39202;51.468;7.146;2022-12-20T10:50:54;22.50;39.00
53314;DHT22;39202;51.468;7.146;2022-12-20T10:56:14;22.60;39.00
53314;DHT22;39202;51.468;7.146;2022-12-20T11:01:19;22.70;39.20
53314;DHT22;39202;51.468;7.146;2022-12-20T11:06:25;22.90;39.10
53314;DHT22;39202;51.468;7.146;2022-12-20T11:11:28;23.00;39.10
53314;DHT22;39202;51.468;7.146;2022-12-20T11:16:34;23.10;39.10
53314;DHT22;39202;51.468;7.146;2022-12-20T11:21:43;23.20;39.10
53314;DHT22;39202;51.468;7.146;2022-12-20T11:27:08;23.30;39.10
53314;DHT22;39202;51.468;7.146;2022-12-20T11:32:24;23.40;39.10
53314;DHT22;39202;51.468;7.146;2022-12-20T11:37:33;23.50;39.00
53314;DHT22;39202;51.468;7.146;2022-12-20T11:42:51;23.50;38.80
53314;DHT22;39202;51.468;7.146;2022-12-20T11:48:10;23.60;38.80
53314;DHT22;39202;51.468;7.146;2022-12-20T11:53:21;23.60;38.70
53314;DHT22;39202;51.468;7.146;2022-12-20T11:58:29;23.60;38.60
53314;DHT22;39202;51.468;7.146;2022-12-20T12:03:35;22.90;38.20
53314;DHT22;39202;51.468;7.146;2022-12-20T12:08:44;23.60;38.50
53314;DHT22;39202;51.468;7.146;2022-12-20T12:13:49;23.60;38.40
53314;DHT22;39202;51.468;7.146;2022-12-20T12:18:51;23.60;38.40
53314;DHT22;39202;51.468;7.146;2022-12-20T12:24:02;23.60;38.30
53314;DHT22;39202;51.468;7.146;2022-12-20T12:29:11;23.50;38.30
53314;DHT22;39202;51.468;7.146;2022-12-20T12:34:25;23.50;38.30
53314;DHT22;39202;51.468;7.146;2022-12-20T12:39:55;23.50;38.20
53314;DHT22;39202;51.468;7.146;2022-12-20T12:45:03;23.40;38.20
53314;DHT22;39202;51.468;7.146;2022-12-20T12:50:13;23.40;38.20
53314;DHT22;39202;51.468;7.146;2022-12-20T12:55:39;23.40;38.40
53314;DHT22;39202;51.468;7.146;2022-12-20T13:00:50;23.40;38.20
53314;DHT22;39202;51.468;7.146;2022-12-20T13:05:52;23.30;38.20
53314;DHT22;39202;51.468;7.146;2022-12-20T13:11:01;23.30;38.20
53314;DHT22;39202;51.468;7.146;2022-12-20T13:16:09;23.30;38.20
53314;DHT22;39202;51.468;7.146;2022-12-20T13:21:29;23.20;38.20
53314;DHT22;39202;51.468;7.146;2022-12-20T13:26:51;23.20;38.20
53314;DHT22;39202;51.468;7.146;2022-12-20T13:31:54;23.20;38.20
53314;DHT22;39202;51.468;7.146;2022-12-20T13:36:57;23.10;38.20
53314;DHT22;39202;51.468;7.146;2022-12-20T13:42:21;23.10;38.20
53314;DHT22;39202;51.468;7.146;2022-12-20T13:47:37;23.10;38.20
53314;DHT22;39202;51.468;7.146;2022-12-20T13:52:41;23.10;38.30
53314;DHT22;39202;51.468;7.146;2022-12-20T13:57:44;23.00;38.30
53314;DHT22;39202;51.468;7.146;2022-12-20T14:02:47;23.00;38.20
53314;DHT22;39202;51.468;7.146;2022-12-20T14:07:55;23.00;38.30
53314;DHT22;39202;51.468;7.146;2022-12-20T14:12:58;22.90;38.20
53314;DHT22;39202;51.468;7.146;2022-12-20T14:18:18;22.90;38.20
53314;DHT22;39202;51.468;7.146;2022-12-20T14:23:22;22.90;38.30
53314;DHT22;39202;51.468;7.146;2022-12-20T14:28:28;22.90;38.30
53314;DHT22;39202;51.468;7.146;2022-12-20T14:33:35;22.80;38.30
53314;DHT22;39202;51.468;7.146;2022-12-20T14:38:38;22.80;38.50
53314;DHT22;39202;51.468;7.146;2022-12-20T14:43:40;22.80;38.50
53314;DHT22;39202;51.468;7.146;2022-12-20T14:48:44;22.80;38.50
53314;DHT22;39202;51.468;7.146;2022-12-20T14:53:47;22.80;38.70
53314;DHT22;39202;51.468;7.146;2022-12-20T14:59:02;22.80;38.70
53314;DHT22;39202;51.468;7.146;2022-12-20T15:04:22;22.80;38.80
53314;DHT22;39202;51.468;7.146;2022-12-20T15:09:23;22.80;38.70
53314;DHT22;39202;51.468;7.146;2022-12-20T15:14:31;22.80;38.50
53314;DHT22;39202;51.468;7.146;2022-12-20T15:19:37;22.80;38.80
53314;DHT22;39202;51.468;7.146;2022-12-20T15:24:39;22.80;39.00
53314;DHT22;39202;51.468;7.146;2022-12-20T15:29:41;22.80;39.10
53314;DHT22;39202;51.468;7.146;2022-12-20T15:34:44;22.90;39.30
53314;DHT22;39202;51.468;7.146;2022-12-20T15:39:46;23.00;39.40
53314;DHT22;39202;51.468;7.146;2022-12-20T15:44:47;23.00;39.30
53314;DHT22;39202;51.468;7.146;2022-12-20T15:49:50;23.10;39.40
53314;DHT22;39202;51.468;7.146;2022-12-20T15:54:52;23.20;39.30
53314;DHT22;39202;51.468;7.146;2022-12-20T15:59:54;23.20;39.10
53314;DHT22;39202;51.468;7.146;2022-12-20T16:04:57;23.20;38.90
53314;DHT22;39202;51.468;7.146;2022-12-20T16:09:59;23.20;38.90
53314;DHT22;39202;51.468;7.146;2022-12-20T16:15:01;23.20;39.10
53314;DHT22;39202;51.468;7.146;2022-12-20T16:20:05;23.20;39.20
53314;DHT22;39202;51.468;7.146;2022-12-20T16:25:22;23.20;39.40
53314;DHT22;39202;51.468;7.146;2022-12-20T16:30:25;23.30;39.60
53314;DHT22;39202;51.468;7.146;2022-12-20T16:35:30;23.40;39.50
53314;DHT22;39202;51.468;7.146;2022-12-20T16:40:32;23.50;39.60
53314;DHT22;39202;51.468;7.146;2022-12-20T16:45:34;23.50;39.50
53314;DHT22;39202;51.468;7.146;2022-12-20T16:50:37;23.60;39.50
53314;DHT22;39202;51.468;7.146;2022-12-20T16:55:42;23.70;39.50
53314;DHT22;39202;51.468;7.146;2022-12-20T17:00:45;23.70;39.40
53314;DHT22;39202;51.468;7.146;2022-12-20T17:05:48;23.70;39.40
53314;DHT22;39202;51.468;7.146;2022-12-20T17:10:50;23.70;39.40
53314;DHT22;39202;51.468;7.146;2022-12-20T17:15:52;23.80;39.30
53314;DHT22;39202;51.468;7.146;2022-12-20T17:20:55;23.70;39.20
53314;DHT22;39202;51.468;7.146;2022-12-20T17:25:57;23.70;39.20
53314;DHT22;39202;51.468;7.146;2022-12-20T17:30:58;23.70;39.10
53314;DHT22;39202;51.468;7.146;2022-12-20T17:36:02;23.70;39.10
53314;DHT22;39202;51.468;7.146;2022-12-20T17:41:04;23.70;39.10
53314;DHT22;39202;51.468;7.146;2022-12-20T17:46:06;23.60;39.00
53314;DHT22;39202;51.468;7.146;2022-12-20T17:51:14;23.60;39.00
53314;DHT22;39202;51.468;7.146;2022-12-20T17:56:19;23.50;39.00
53314;DHT22;39202;51.468;7.146;2022-12-20T18:01:23;23.50;39.00
53314;DHT22;39202;51.468;7.146;2022-12-20T18:06:27;23.50;39.00
53314;DHT22;39202;51.468;7.146;2022-12-20T18:11:31;23.40;39.00
53314;DHT22;39202;51.468;7.146;2022-12-20T18:16:33;23.40;39.00
53314;DHT22;39202;51.468;7.146;2022-12-20T18:21:36;23.40;39.00
53314;DHT22;39202;51.468;7.146;2022-12-20T18:26:38;23.30;39.00
53314;DHT22;39202;51.468;7.146;2022-12-20T18:31:40;23.30;38.90
53314;DHT22;39202;51.468;7.146;2022-12-20T18:36:43;23.30;39.00
53314;DHT22;39202;51.468;7.146;2022-12-20T18:41:45;23.30;39.00
53314;DHT22;39202;51.468;7.146;2022-12-20T18:46:47;22.60;38.60
53314;DHT22;39202;51.468;7.146;2022-12-20T18:51:50;23.20;39.00
53314;DHT22;39202;51.468;7.146;2022-12-20T18:56:52;23.20;39.00
53314;DHT22;39202;51.468;7.146;2022-12-20T19:01:54;23.10;39.00
53314;DHT22;39202;51.468;7.146;2022-12-20T19:06:57;23.10;39.60
53314;DHT22;39202;51.468;7.146;2022-12-20T19:11:58;23.00;39.00
53314;DHT22;39202;51.468;7.146;2022-12-20T19:17:01;23.00;39.00
53314;DHT22;39202;51.468;7.146;2022-12-20T19:22:04;23.00;39.00
53314;DHT22;39202;51.468;7.146;2022-12-20T19:27:06;23.00;39.10
53314;DHT22;39202;51.468;7.146;2022-12-20T19:32:09;23.00;39.10
53314;DHT22;39202;51.468;7.146;2022-12-20T19:37:12;22.90;39.10
53314;DHT22;39202;51.468;7.146;2022-12-20T19:42:14;22.90;39.10
53314;DHT22;39202;51.468;7.146;2022-12-20T19:47:16;22.90;39.20
53314;DHT22;39202;51.468;7.146;2022-12-20T19:52:19;22.80;39.10
53314;DHT22;39202;51.468;7.146;2022-12-20T19:57:20;22.80;39.10
53314;DHT22;39202;51.468;7.146;2022-12-20T20:02:22;22.80;39.10
53314;DHT22;39202;51.468;7.146;2022-12-20T20:07:25;22.80;39.20
53314;DHT22;39202;51.468;7.146;2022-12-20T20:12:27;22.70;39.20
53314;DHT22;39202;51.468;7.146;2022-12-20T20:17:29;22.70;39.20
53314;DHT22;39202;51.468;7.146;2022-12-20T20:22:32;22.70;39.20
53314;DHT22;39202;51.468;7.146;2022-12-20T20:27:34;22.60;39.20
53314;DHT22;39202;51.468;7.146;2022-12-20T20:32:36;22.70;39.20
53314;DHT22;39202;51.468;7.146;2022-12-20T20:37:39;22.60;39.20
53314;DHT22;39202;51.468;7.146;2022-12-20T20:42:41;22.60;39.20
53314;DHT22;39202;51.468;7.146;2022-12-20T20:47:43;22.50;39.20
53314;DHT22;39202;51.468;7.146;2022-12-20T20:52:47;22.50;39.20
53314;DHT22;39202;51.468;7.146;2022-12-20T20:57:49;22.50;39.30
53314;DHT22;39202;51.468;7.146;2022-12-20T21:02:51;22.50;39.30
53314;DHT22;39202;51.468;7.146;2022-12-20T21:07:54;22.50;39.30
53314;DHT22;39202;51.468;7.146;2022-12-20T21:12:56;22.40;39.30
53314;DHT22;39202;51.468;7.146;2022-12-20T21:17:57;22.40;39.30
53314;DHT22;39202;51.468;7.146;2022-12-20T21:23:01;22.40;39.30
53314;DHT22;39202;51.468;7.146;2022-12-20T21:28:03;22.40;39.30
53314;DHT22;39202;51.468;7.146;2022-12-20T21:33:04;22.40;39.30
53314;DHT22;39202;51.468;7.146;2022-12-20T21:38:07;22.40;39.30
53314;DHT22;39202;51.468;7.146;2022-12-20T21:43:09;22.30;39.20
53314;DHT22;39202;51.468;7.146;2022-12-20T21:48:11;22.30;39.30
53314;DHT22;39202;51.468;7.146;2022-12-20T21:53:14;22.30;39.30
53314;DHT22;39202;51.468;7.146;2022-12-20T21:58:15;23.40;39.90
53314;DHT22;39202;51.468;7.146;2022-12-20T22:03:17;22.30;39.40
53314;DHT22;39202;51.468;7.146;2022-12-20T22:08:23;22.30;39.30
53314;DHT22;39202;51.468;7.146;2022-12-20T22:13:26;22.30;39.40
53314;DHT22;39202;51.468;7.146;2022-12-20T22:18:28;22.30;39.40
53314;DHT22;39202;51.468;7.146;2022-12-20T22:23:31;22.30;39.40
53314;DHT22;39202;51.468;7.146;2022-12-20T22:28:33;22.30;39.40
53314;DHT22;39202;51.468;7.146;2022-12-20T22:33:36;22.30;39.40
53314;DHT22;39202;51.468;7.146;2022-12-20T22:38:39;22.20;39.30
53314;DHT22;39202;51.468;7.146;2022-12-20T22:43:43;22.20;39.40
53314;DHT22;39202;51.468;7.146;2022-12-20T22:48:46;22.20;39.40
53314;DHT22;39202;51.468;7.146;2022-12-20T22:53:49;22.20;39.50
53314;DHT22;39202;51.468;7.146;2022-12-20T22:58:51;22.20;39.50
53314;DHT22;39202;51.468;7.146;2022-12-20T23:03:52;22.20;39.40
53314;DHT22;39202;51.468;7.146;2022-12-20T23:08:55;22.10;39.40
53314;DHT22;39202;51.468;7.146;2022-12-20T23:13:57;22.20;39.50
53314;DHT22;39202;51.468;7.146;2022-12-20T23:19:16;22.10;39.40
53314;DHT22;39202;51.468;7.146;2022-12-20T23:24:19;22.10;39.40
53314;DHT22;39202;51.468;7.146;2022-12-20T23:29:21;22.10;39.50
53314;DHT22;39202;51.468;7.146;2022-12-20T23:34:23;22.10;39.50
53314;DHT22;39202;51.468;7.146;2022-12-20T23:39:26;22.10;39.50
53314;DHT22;39202;51.468;7.146;2022-12-20T23:44:28;22.20;39.50
53314;DHT22;39202;51.468;7.146;2022-12-20T23:49:29;22.10;39.50
53314;DHT22;39202;51.468;7.146;2022-12-20T23:54:32;22.10;39.50
53314;DHT22;39202;51.468;7.146;2022-12-20T23:59:34;22.10;39.50
